Time;durP1;ratioP1;P1;durP2;ratioP2;P2;SDS_P1;SDS_P2;PMS_P1;PMS_P2;Temp;Humidity;BMP_temperature;BMP_pressure;BME280_temperature;BME280_humidity;BME280_pressure;Samples;Min_cycle;Max_cycle;Signal;HPM_P1;HPM_P2
2021/03/08 00:01:52;;;;;;;19.13;13.40;;;1.50;99.90;;;;;;4980344;27;118456;-61
2021/03/08 00:04:21;;;;;;;19.87;13.90;;;1.60;99.90;;;;;;4998881;27;118364;-62
2021/03/08 00:06:47;;;;;;;22.33;13.37;;;1.60;99.90;;;;;;4997006;27;119561;-60
2021/03/08 00:09:14;;;;;;;18.00;13.27;;;1.60;99.90;;;;;;4997369;27;118673;-61
2021/03/08 00:11:40;;;;;;;20.67;12.63;;;1.60;99.90;;;;;;4997914;27;118289;-60
2021/03/08 00:14:07;;;;;;;21.83;13.13;;;1.60;99.90;;;;;;4998706;27;118378;-61
2021/03/08 00:16:33;;;;;;;17.43;12.40;;;1.50;99.90;;;;;;4996835;27;118656;-59
2021/03/08 00:19:00;;;;;;;20.00;13.23;;;3.30;99.90;;;;;;4997048;27;119748;-60
2021/03/08 00:21:26;;;;;;;21.50;13.53;;;1.60;99.90;;;;;;4997394;27;118483;-59
2021/03/08 00:23:52;;;;;;;20.60;13.30;;;1.70;99.90;;;;;;4998471;27;118226;-60
2021/03/08 00:26:20;;;;;;;21.67;14.00;;;1.60;99.90;;;;;;4996944;27;118706;-60
2021/03/08 00:28:47;;;;;;;18.50;12.87;;;1.50;99.90;;;;;;4996668;27;119087;-60
2021/03/08 00:31:18;;;;;;;19.53;12.93;;;1.60;99.90;;;;;;4998124;27;118257;-59
2021/03/08 00:33:44;;;;;;;17.43;13.83;;;1.40;99.90;;;;;;4979366;27;118653;-59
2021/03/08 00:36:10;;;;;;;17.83;13.93;;;1.70;99.90;;;;;;4997587;27;118671;-58
2021/03/08 00:38:37;;;;;;;18.60;13.70;;;1.80;99.90;;;;;;4997935;27;119093;-60
2021/03/08 00:41:03;;;;;;;20.77;13.40;;;1.60;99.90;;;;;;4998290;27;118302;-58
2021/03/08 00:43:29;;;;;;;18.70;13.50;;;1.80;99.90;;;;;;4997877;27;118507;-58
2021/03/08 00:45:56;;;;;;;23.47;15.10;;;1.70;99.90;;;;;;4996850;27;119007;-59
2021/03/08 00:48:23;;;;;;;22.20;14.37;;;1.70;99.90;;;;;;4997054;27;118805;-59
2021/03/08 00:50:49;;;;;;;23.80;14.37;;;1.50;99.90;;;;;;4997832;27;118490;-59
2021/03/08 00:53:21;;;;;;;21.63;14.77;;;1.70;99.90;;;;;;4979151;27;118462;-57
2021/03/08 00:55:50;;;;;;;22.63;15.57;;;1.60;99.90;;;;;;4978407;27;121257;-58
2021/03/08 00:58:17;;;;;;;25.80;15.27;;;1.60;99.90;;;;;;4977981;27;120604;-59
2021/03/08 01:00:43;;;;;;;23.23;15.17;;;1.60;99.90;;;;;;4978762;27;118448;-58
2021/03/08 01:03:11;;;;;;;21.43;14.57;;;1.60;99.90;;;;;;4979267;27;118608;-59
2021/03/08 01:05:42;;;;;;;24.20;14.07;;;1.60;99.90;;;;;;5012243;27;121313;-58
2021/03/08 01:08:16;;;;;;;25.00;15.17;;;1.70;99.90;;;;;;4980974;27;121298;-58
2021/03/08 01:10:44;;;;;;;20.33;14.80;;;1.70;99.90;;;;;;4981969;27;118383;-59
2021/03/08 01:13:17;;;;;;;23.03;14.77;;;1.70;99.90;;;;;;4982489;27;118454;-59
2021/03/08 01:15:50;;;;;;;21.53;14.73;;;1.70;99.90;;;;;;4981042;27;121311;-57
2021/03/08 01:18:17;;;;;;;22.93;15.10;;;1.70;99.90;;;;;;5000008;27;119103;-59
2021/03/08 01:20:44;;;;;;;22.23;15.27;;;1.70;99.90;;;;;;5000746;27;118432;-58
2021/03/08 01:23:11;;;;;;;21.13;13.43;;;1.70;99.90;;;;;;5001450;27;118278;-59
2021/03/08 01:25:37;;;;;;;21.97;14.77;;;1.70;99.90;;;;;;5003022;27;119095;-58
2021/03/08 01:28:04;;;;;;;23.73;15.73;;;1.70;99.90;;;;;;5001904;27;118588;-59
2021/03/08 01:30:33;;;;;;;21.93;16.53;;;1.70;99.90;;;;;;5001280;27;118183;-58
2021/03/08 01:33:00;;;;;;;22.50;15.13;;;1.70;99.90;;;;;;5000860;27;118200;-58
2021/03/08 01:35:26;;;;;;;21.33;15.13;;;1.70;99.90;;;;;;4999768;27;118721;-60
2021/03/08 01:37:53;;;;;;;24.97;15.43;;;1.70;99.90;;;;;;4999854;27;119342;-58
2021/03/08 01:40:22;;;;;;;21.67;14.43;;;1.90;99.90;;;;;;5000865;27;118341;-58
2021/03/08 01:42:48;;;;;;;18.87;13.77;;;1.80;99.90;;;;;;5001112;27;119084;-58
2021/03/08 01:45:16;;;;;;;23.00;15.93;;;1.70;99.90;;;;;;4999741;27;119243;-59
2021/03/08 01:47:44;;;;;;;23.30;16.20;;;2.70;99.90;;;;;;4999477;27;119282;-58
2021/03/08 01:50:14;;;;;;;26.20;15.47;;;1.70;99.90;;;;;;5001307;27;118356;-58
2021/03/08 01:52:40;;;;;;;22.40;14.97;;;1.70;99.90;;;;;;5000598;27;118388;-58
2021/03/08 01:55:09;;;;;;;19.53;14.47;;;1.60;99.90;;;;;;4999565;27;119194;-60
2021/03/08 01:57:36;;;;;;;22.70;15.33;;;1.80;99.90;;;;;;4999968;27;118577;-58
2021/03/08 02:00:04;;;;;;;23.80;16.10;;;1.80;99.90;;;;;;5000910;27;118280;-60
2021/03/08 02:02:39;;;;;;;22.30;15.40;;;1.70;99.90;;;;;;4997908;27;118304;-59
2021/03/08 02:05:08;;;;;;;22.70;16.17;;;1.00;99.90;;;;;;4999360;27;119494;-58
2021/03/08 02:07:34;;;;;;;23.00;16.53;;;1.70;99.90;;;;;;4999566;27;118727;-60
2021/03/08 02:10:01;;;;;;;24.17;16.60;;;1.70;99.90;;;;;;5000945;27;118465;-58
2021/03/08 02:12:38;;;;;;;24.97;15.83;;;1.70;99.90;;;;;;4999786;27;118471;-58
2021/03/08 02:15:13;;;;;;;23.53;16.23;;;1.70;99.90;;;;;;4999142;27;119617;-59
2021/03/08 02:17:44;;;;;;;21.53;15.53;;;1.60;99.90;;;;;;4999015;27;119241;-59
2021/03/08 02:20:42;;;;;;;22.30;15.27;;;1.70;99.90;;;;;;5000594;27;118304;-59
2021/03/08 02:23:51;;;;;;;24.37;15.93;;;1.70;99.90;;;;;;5000132;27;118260;-58
2021/03/08 02:26:40;;;;;;;23.60;15.43;;;1.60;99.90;;;;;;4997924;27;119472;-59
2021/03/08 02:29:34;;;;;;;22.73;16.07;;;1.60;99.90;;;;;;4999219;27;118322;-59
2021/03/08 02:32:05;;;;;;;24.90;16.10;;;0.60;99.90;;;;;;4999924;27;118299;-60
2021/03/08 02:34:38;;;;;;;22.47;16.23;;;1.70;99.90;;;;;;5000581;27;118162;-60
2021/03/08 02:37:10;;;;;;;25.17;17.27;;;1.60;99.90;;;;;;4998614;27;119322;-60
2021/03/08 02:39:41;;;;;;;24.40;16.03;;;1.70;99.90;;;;;;4999162;27;118553;-60
2021/03/08 02:42:11;;;;;;;28.50;16.43;;;1.70;99.90;;;;;;4999561;27;118202;-59
2021/03/08 02:44:40;;;;;;;27.57;17.57;;;1.70;99.90;;;;;;4999962;27;118877;-60
2021/03/08 02:47:10;;;;;;;24.77;17.20;;;1.80;99.90;;;;;;4998522;27;118715;-60
2021/03/08 02:49:39;;;;;;;24.97;16.50;;;1.90;99.90;;;;;;4998622;27;118354;-58
2021/03/08 02:52:09;;;;;;;23.87;17.30;;;1.70;99.90;;;;;;4999453;27;118446;-60
2021/03/08 02:54:40;;;;;;;26.97;17.27;;;1.80;99.90;;;;;;4999576;27;118391;-61
2021/03/08 02:57:09;;;;;;;30.43;18.07;;;1.80;99.90;;;;;;4998078;27;119429;-59
2021/03/08 02:59:39;;;;;;;25.67;17.13;;;1.80;99.90;;;;;;4998490;27;120218;-60
2021/03/08 03:02:07;;;;;;;28.43;19.17;;;1.70;99.90;;;;;;4980473;27;118445;-59
2021/03/08 03:04:36;;;;;;;25.97;17.83;;;1.80;99.90;;;;;;4999789;27;118351;-60
2021/03/08 03:07:03;;;;;;;25.87;16.77;;;1.70;99.90;;;;;;4998124;27;119587;-59
2021/03/08 03:09:32;;;;;;;24.10;16.63;;;2.80;99.90;;;;;;4998273;27;119241;-58
2021/03/08 03:12:00;;;;;;;26.07;17.97;;;1.70;99.90;;;;;;4997285;27;118274;-58
2021/03/08 03:14:27;;;;;;;23.43;16.80;;;1.70;99.90;;;;;;4998563;27;118402;-58
2021/03/08 03:16:57;;;;;;;25.83;17.10;;;1.70;99.90;;;;;;4997515;27;119691;-59
2021/03/08 03:19:26;;;;;;;26.53;18.30;;;1.80;99.90;;;;;;4997513;27;119840;-58
2021/03/08 03:21:54;;;;;;;22.47;16.10;;;1.80;99.90;;;;;;4999383;27;118413;-58
2021/03/08 03:24:24;;;;;;;27.00;18.03;;;2.00;99.90;;;;;;4999539;27;118083;-58
2021/03/08 03:26:52;;;;;;;28.07;17.80;;;1.90;99.90;;;;;;4997682;27;119906;-58
2021/03/08 03:29:19;;;;;;;28.43;17.23;;;1.90;99.90;;;;;;4997504;27;119311;-59
2021/03/08 03:31:47;;;;;;;28.97;19.20;;;1.90;99.90;;;;;;4999159;27;118291;-59
2021/03/08 03:34:14;;;;;;;28.40;17.77;;;1.90;99.90;;;;;;4999734;27;119124;-59
2021/03/08 03:36:45;;;;;;;26.33;17.77;;;2.10;99.90;;;;;;4997784;27;120218;-59
2021/03/08 03:39:12;;;;;;;30.80;18.10;;;2.00;99.90;;;;;;4978188;28;118812;-58
2021/03/08 03:41:39;;;;;;;27.03;18.40;;;2.00;99.90;;;;;;4978055;28;118170;-58
2021/03/08 03:44:07;;;;;;;27.27;18.10;;;2.00;99.90;;;;;;4978914;28;118397;-58
2021/03/08 03:46:37;;;;;;;26.00;16.87;;;2.00;99.90;;;;;;4978489;27;119552;-59
2021/03/08 03:49:03;;;;;;;32.07;18.93;;;2.00;99.90;;;;;;4998054;27;118497;-58
2021/03/08 03:51:30;;;;;;;27.07;18.13;;;2.10;99.90;;;;;;4997842;27;118131;-58
2021/03/08 03:53:57;;;;;;;28.63;18.43;;;2.00;99.90;;;;;;4999078;27;118392;-60
2021/03/08 03:56:27;;;;;;;31.00;18.43;;;2.00;99.90;;;;;;4997287;27;119565;-60
2021/03/08 03:58:58;;;;;;;28.37;18.93;;;2.10;99.90;;;;;;4998186;27;118779;-59
2021/03/08 04:01:34;;;;;;;29.53;18.80;;;2.00;99.90;;;;;;4998611;27;118363;-59
2021/03/08 04:04:03;;;;;;;49.07;20.30;;;2.30;99.90;;;;;;4998620;27;118386;-58
2021/03/08 04:06:33;;;;;;;24.87;16.63;;;2.30;99.90;;;;;;4996673;27;119904;-58
2021/03/08 04:09:03;;;;;;;30.47;18.00;;;2.10;99.90;;;;;;4997696;27;119253;-60
2021/03/08 04:11:31;;;;;;;25.83;18.60;;;2.20;99.90;;;;;;4998628;27;118518;-59
2021/03/08 04:13:59;;;;;;;30.03;19.60;;;2.20;99.90;;;;;;5001863;27;118576;-58
2021/03/08 04:16:27;;;;;;;29.07;18.63;;;2.20;99.90;;;;;;4997146;27;119714;-60
2021/03/08 04:18:54;;;;;;;27.63;17.23;;;2.10;99.90;;;;;;4997619;27;118496;-58
2021/03/08 04:21:21;;;;;;;26.77;18.53;;;2.20;99.90;;;;;;4998759;27;118859;-57
2021/03/08 04:23:48;;;;;;;97.87;24.80;;;2.30;99.90;;;;;;4998858;27;118210;-59
2021/03/08 04:26:17;;;;;;;33.63;18.70;;;2.30;99.90;;;;;;4997726;27;119326;-58
2021/03/08 04:28:45;;;;;;;34.17;19.30;;;2.30;99.90;;;;;;4997750;27;118445;-58
2021/03/08 04:31:12;;;;;;;32.90;18.13;;;2.40;99.90;;;;;;4979048;27;118229;-59
2021/03/08 04:33:39;;;;;;;30.47;19.17;;;2.40;99.90;;;;;;4997860;27;118497;-58
2021/03/08 04:36:07;;;;;;;28.90;18.20;;;2.40;99.90;;;;;;4997147;27;118547;-58
2021/03/08 04:38:33;;;;;;;33.93;19.77;;;2.30;99.90;;;;;;4997571;27;118837;-60
2021/03/08 04:41:00;;;;;;;32.17;18.57;;;2.30;99.90;;;;;;4998435;27;118746;-60
2021/03/08 04:43:29;;;;;;;30.60;18.93;;;2.30;99.90;;;;;;5001180;27;118278;-60
2021/03/08 04:45:56;;;;;;;30.33;18.53;;;2.40;99.90;;;;;;5000296;27;118954;-61
2021/03/08 04:48:23;;;;;;;34.53;20.13;;;2.20;99.90;;;;;;5000255;27;119640;-57
2021/03/08 04:50:50;;;;;;;28.73;18.23;;;2.30;99.90;;;;;;5001804;27;118166;-60
2021/03/08 04:53:17;;;;;;;43.23;20.97;;;2.50;99.90;;;;;;5001272;27;118372;-60
2021/03/08 04:55:45;;;;;;;30.67;19.30;;;2.30;99.90;;;;;;5000021;27;119810;-62
2021/03/08 04:58:12;;;;;;;31.13;18.40;;;2.50;99.90;;;;;;5000650;27;119662;-59
2021/03/08 05:00:39;;;;;;;34.40;21.03;;;2.30;99.90;;;;;;5001337;27;118097;-59
2021/03/08 05:03:06;;;;;;;48.73;20.37;;;2.40;99.90;;;;;;5001897;27;118264;-59
2021/03/08 05:05:33;;;;;;;31.07;19.13;;;2.50;99.90;;;;;;5002083;27;118923;-59
2021/03/08 05:08:04;;;;;;;40.20;21.90;;;2.50;99.90;;;;;;4999868;27;119252;-61
2021/03/08 05:10:33;;;;;;;35.23;21.07;;;2.40;99.90;;;;;;5001050;27;118452;-59
2021/03/08 05:13:01;;;;;;;32.67;20.60;;;2.40;99.90;;;;;;5001321;27;118350;-58
2021/03/08 05:15:28;;;;;;;36.93;21.20;;;2.30;99.90;;;;;;4999896;27;118764;-57
2021/03/08 05:17:57;;;;;;;37.17;20.20;;;2.20;99.90;;;;;;5000382;27;119259;-58
2021/03/08 05:20:24;;;;;;;39.70;21.43;;;2.30;99.90;;;;;;5001139;27;118356;-60
2021/03/08 05:22:51;;;;;;;33.00;20.53;;;2.30;99.90;;;;;;5001371;27;118485;-58
2021/03/08 05:25:19;;;;;;;35.97;22.43;;;2.30;99.90;;;;;;5000045;27;119979;-58
2021/03/08 05:27:46;;;;;;;33.23;20.57;;;2.20;99.90;;;;;;5000064;27;118845;-58
2021/03/08 05:30:17;;;;;;;35.90;22.47;;;2.20;99.90;;;;;;5000733;27;118645;-57
2021/03/08 05:32:49;;;;;;;32.77;20.60;;;2.30;99.90;;;;;;5001556;27;118570;-58
2021/03/08 05:35:16;;;;;;;38.43;22.33;;;2.20;99.90;;;;;;5000496;27;119409;-58
2021/03/08 05:37:44;;;;;;;36.10;22.70;;;2.10;99.90;;;;;;5000133;27;119044;-59
2021/03/08 05:40:22;;;;;;;31.10;20.20;;;2.30;99.90;;;;;;5000932;27;118941;-60
2021/03/08 05:42:57;;;;;;;32.50;19.87;;;2.10;99.90;;;;;;5000535;27;118200;-59
2021/03/08 05:45:27;;;;;;;39.07;22.37;;;2.10;99.90;;;;;;4995653;27;120640;-58
2021/03/08 05:48:29;;;;;;;34.07;22.27;;;2.20;99.90;;;;;;4997060;27;119249;-59
2021/03/08 05:51:16;;;;;;;32.73;19.20;;;2.10;99.90;;;;;;4994957;27;118268;-58
2021/03/08 05:54:06;;;;;;;28.23;18.17;;;2.00;99.90;;;;;;4996641;27;118461;-58
2021/03/08 05:56:41;;;;;;;37.77;21.97;;;2.10;99.90;;;;;;4995328;27;119121;-58
2021/03/08 05:59:29;;;;;;;34.43;22.17;;;2.20;99.90;;;;;;4969324;27;119706;-58
2021/03/08 06:02:31;;;;;;;34.63;20.63;;;2.20;99.90;;;;;;4997444;27;118385;-58
2021/03/08 06:05:18;;;;;;;33.93;18.83;;;2.10;99.90;;;;;;4976590;27;118823;-60
2021/03/08 06:08:24;;;;;;;33.43;21.30;;;2.00;99.90;;;;;;4995923;27;118706;-58
2021/03/08 06:11:05;;;;;;;35.27;19.87;;;2.20;99.90;;;;;;4896256;28;118495;-59
2021/03/08 06:13:38;;;;;;;36.60;21.83;;;2.00;99.90;;;;;;4973130;28;118505;-58
2021/03/08 06:16:08;;;;;;;30.77;18.97;;;2.00;99.90;;;;;;4980164;27;118121;-59
2021/03/08 06:18:43;;;;;;;36.10;21.07;;;2.20;99.90;;;;;;4998623;27;118886;-61
2021/03/08 06:21:10;;;;;;;36.23;21.13;;;2.20;99.90;;;;;;4998298;27;118304;-59
2021/03/08 06:23:39;;;;;;;35.60;22.33;;;2.30;99.90;;;;;;4999331;27;117900;-59
2021/03/08 06:26:05;;;;;;;33.03;21.27;;;2.30;99.90;;;;;;4999877;27;119708;-57
2021/03/08 06:28:32;;;;;;;41.43;25.23;;;2.20;99.90;;;;;;4998446;27;119700;-58
2021/03/08 06:30:59;;;;;;;38.37;21.60;;;2.20;99.90;;;;;;4998869;27;119358;-59
2021/03/08 06:33:26;;;;;;;33.77;21.50;;;2.20;99.90;;;;;;4999777;27;118305;-59
2021/03/08 06:35:53;;;;;;;35.30;21.90;;;2.20;99.90;;;;;;4999051;27;118523;-59
2021/03/08 06:38:21;;;;;;;36.90;21.47;;;2.10;99.90;;;;;;4997553;27;120260;-59
2021/03/08 06:40:48;;;;;;;38.93;23.83;;;2.20;99.90;;;;;;4997981;27;120051;-58
2021/03/08 06:43:14;;;;;;;45.10;23.83;;;2.20;99.90;;;;;;4999033;27;118368;-58
2021/03/08 06:45:41;;;;;;;37.40;23.17;;;2.50;99.90;;;;;;4999760;27;118360;-60
2021/03/08 06:48:08;;;;;;;32.03;21.07;;;2.70;99.90;;;;;;4998635;27;120323;-59
2021/03/08 06:50:35;;;;;;;35.73;22.33;;;3.00;99.90;;;;;;4998517;27;118622;-59
2021/03/08 06:53:02;;;;;;;27.03;18.93;;;3.20;99.90;;;;;;4999268;27;118326;-59
2021/03/08 06:55:29;;;;;;;25.43;17.50;;;3.60;99.90;;;;;;4999709;27;118571;-59
2021/03/08 06:58:15;;;;;;;23.37;15.90;;;3.40;99.90;;;;;;4998494;27;119060;-57
2021/03/08 07:00:42;;;;;;;22.07;15.13;;;3.40;99.90;;;;;;4998114;27;118998;-60
2021/03/08 07:03:31;;;;;;;24.67;16.00;;;3.60;99.90;;;;;;4998248;27;118542;-59
2021/03/08 07:06:15;;;;;;;31.53;19.90;;;3.40;99.90;;;;;;4999331;27;118372;-57
2021/03/08 07:08:41;;;;;;;26.57;18.33;;;3.50;99.90;;;;;;4998820;27;118640;-57
2021/03/08 07:11:15;;;;;;;20.60;14.10;;;3.40;99.90;;;;;;4997679;27;119329;-59
2021/03/08 07:13:42;;;;;;;19.90;14.87;;;3.30;99.90;;;;;;4999316;27;118501;-59
2021/03/08 07:16:09;;;;;;;21.03;13.70;;;3.40;99.90;;;;;;4998965;27;118305;-57
2021/03/08 07:18:35;;;;;;;22.30;16.03;;;3.30;99.90;;;;;;4997425;27;119010;-58
2021/03/08 07:21:18;;;;;;;20.77;14.33;;;3.30;99.90;;;;;;4997928;27;118319;-59
2021/03/08 07:23:46;;;;;;;20.83;15.07;;;4.10;99.90;;;;;;4998936;27;118310;-59
2021/03/08 07:26:14;;;;;;;21.83;15.53;;;3.20;99.90;;;;;;4998929;27;118296;-58
2021/03/08 07:28:42;;;;;;;28.07;24.80;;;3.10;99.90;;;;;;4997644;27;119116;-58
2021/03/08 07:31:09;;;;;;;21.90;14.00;;;3.20;99.90;;;;;;4997273;27;119051;-59
2021/03/08 07:33:35;;;;;;;16.27;12.80;;;3.30;99.90;;;;;;4998490;27;118565;-57
2021/03/08 07:36:12;;;;;;;21.80;17.27;;;3.40;99.90;;;;;;4999189;27;118046;-58
2021/03/08 07:38:38;;;;;;;20.30;13.67;;;3.60;99.90;;;;;;4997464;27;119439;-61
2021/03/08 07:41:10;;;;;;;21.67;15.80;;;3.80;99.90;;;;;;4997327;27;118797;-61
2021/03/08 07:43:36;;;;;;;20.30;13.47;;;3.70;99.90;;;;;;4998511;27;118356;-59
2021/03/08 07:46:04;;;;;;;19.63;13.83;;;3.60;99.90;;;;;;4999060;27;118020;-60
2021/03/08 07:48:30;;;;;;;19.43;13.33;;;3.90;99.90;;;;;;4997489;27;118664;-57
2021/03/08 07:51:04;;;;;;;21.33;12.83;;;3.90;99.90;;;;;;4997707;27;118343;-59
2021/03/08 07:53:32;;;;;;;19.10;13.33;;;2.80;99.90;;;;;;4998055;27;118098;-59
2021/03/08 07:56:00;;;;;;;20.87;13.27;;;3.90;99.90;;;;;;4998412;27;118673;-58
2021/03/08 07:58:28;;;;;;;20.17;13.57;;;3.90;99.90;;;;;;4997195;27;119187;-57
2021/03/08 08:00:55;;;;;;;21.13;13.50;;;3.70;99.90;;;;;;4997258;27;119443;-57
2021/03/08 08:03:23;;;;;;;17.77;12.33;;;3.60;99.90;;;;;;4998217;27;118423;-58
2021/03/08 08:05:54;;;;;;;21.07;12.37;;;3.70;99.90;;;;;;4998130;27;118355;-59
2021/03/08 08:08:22;;;;;;;19.73;12.70;;;3.80;99.90;;;;;;4997399;27;118930;-59
2021/03/08 08:10:52;;;;;;;18.13;12.93;;;3.90;99.90;;;;;;4996937;27;119287;-59
2021/03/08 08:13:20;;;;;;;21.47;14.77;;;4.00;99.90;;;;;;4998771;27;118478;-60
2021/03/08 08:15:48;;;;;;;17.33;12.73;;;4.10;99.90;;;;;;4999717;27;118097;-60
2021/03/08 08:18:17;;;;;;;19.27;14.20;;;4.50;99.90;;;;;;5000414;27;118337;-60
2021/03/08 08:20:46;;;;;;;17.93;13.33;;;4.70;99.90;;;;;;5000847;27;118355;-59
2021/03/08 08:23:14;;;;;;;19.43;13.10;;;4.90;99.90;;;;;;5001575;27;118145;-59
2021/03/08 08:25:41;;;;;;;17.57;11.60;;;5.30;99.90;;;;;;5001399;27;118344;-59
2021/03/08 08:28:07;;;;;;;14.80;10.93;;;5.90;99.90;;;;;;5000473;27;119344;-60
2021/03/08 08:30:34;;;;;;;15.97;10.87;;;6.40;99.90;;;;;;5000191;27;119261;-57
2021/03/08 08:33:00;;;;;;;14.60;10.70;;;6.70;99.90;;;;;;5001564;27;117828;-55
2021/03/08 08:35:28;;;;;;;15.03;10.00;;;7.10;99.90;;;;;;5001874;27;118130;-59
2021/03/08 08:38:17;;;;;;;13.10;10.00;;;7.40;99.90;;;;;;5000584;27;118827;-61
2021/03/08 08:40:45;;;;;;;13.73;9.47;;;7.50;99.90;;;;;;5000169;27;118297;-58
2021/03/08 08:43:22;;;;;;;13.03;9.43;;;7.60;99.90;;;;;;5001093;27;118628;-61
2021/03/08 08:45:50;;;;;;;14.30;9.47;;;7.80;99.90;;;;;;5001240;27;118549;-59
2021/03/08 08:48:17;;;;;;;10.77;8.00;;;8.20;99.90;;;;;;5000352;27;119386;-58
2021/03/08 08:50:47;;;;;;;10.60;7.30;;;8.60;99.90;;;;;;5000449;27;119173;-60
2021/03/08 08:53:36;;;;;;;9.30;7.73;;;9.20;99.90;;;;;;5002064;27;118194;-60
2021/03/08 08:56:04;;;;;;;7.83;6.63;;;9.30;96.20;;;;;;5001309;27;118231;-59
2021/03/08 08:58:34;;;;;;;8.43;6.60;;;9.40;95.00;;;;;;4997893;27;119988;-59
2021/03/08 09:04:11;;;;;;;10.03;7.07;;;9.70;89.60;;;;;;4998178;27;118122;-59
2021/03/08 09:06:48;;;;;;;8.17;5.90;;;9.90;88.70;;;;;;4997424;27;118242;-57
2021/03/08 09:09:16;;;;;;;6.20;4.90;;;9.90;87.70;;;;;;4996455;27;120068;-59
2021/03/08 09:11:48;;;;;;;5.43;3.93;;;10.30;84.20;;;;;;4996878;27;118762;-59
2021/03/08 09:14:29;;;;;;;4.77;3.93;;;10.20;81.40;;;;;;4998745;27;118458;-60
2021/03/08 09:17:17;;;;;;;6.80;4.13;;;10.40;77.20;;;;;;4998221;27;118167;-59
2021/03/08 09:19:46;;;;;;;7.60;4.40;;;10.60;70.90;;;;;;4977425;28;119593;-58
2021/03/08 09:22:32;;;;;;;4.93;4.07;;;10.20;73.70;;;;;;4980306;27;119337;-58
2021/03/08 09:25:00;;;;;;;4.57;3.70;;;10.00;74.90;;;;;;4998210;27;118147;-58
2021/03/08 09:27:28;;;;;;;4.37;3.00;;;10.00;75.20;;;;;;4998130;27;118010;-59
2021/03/08 09:30:01;;;;;;;5.13;3.50;;;10.00;72.80;;;;;;4997215;27;119609;-58
2021/03/08 09:32:27;;;;;;;5.50;3.80;;;9.80;72.80;;;;;;4996907;27;118833;-57
2021/03/08 09:34:59;;;;;;;6.53;3.90;;;9.70;73.70;;;;;;4997509;27;118370;-58
2021/03/08 09:37:25;;;;;;;4.97;4.17;;;9.80;73.80;;;;;;4997873;27;118184;-60
2021/03/08 09:39:53;;;;;;;8.10;5.53;;;9.50;70.20;;;;;;4997621;27;119844;-57
2021/03/08 09:42:20;;;;;;;6.30;5.07;;;9.30;72.30;;;;;;4997022;27;118512;-58
2021/03/08 09:44:49;;;;;;;5.50;3.70;;;9.00;74.20;;;;;;4998291;27;118194;-58
2021/03/08 09:47:16;;;;;;;5.90;3.33;;;8.90;74.40;;;;;;4998512;27;118460;-60
2021/03/08 09:49:49;;;;;;;5.83;3.57;;;8.90;75.10;;;;;;4997191;27;118916;-59
2021/03/08 09:52:31;;;;;;;3.63;3.03;;;8.90;74.20;;;;;;4997080;27;119017;-59
2021/03/08 09:54:57;;;;;;;4.50;3.40;;;8.80;73.00;;;;;;4998406;27;118386;-60
2021/03/08 09:57:34;;;;;;;3.97;2.80;;;8.80;73.10;;;;;;4997666;27;118063;-59
2021/03/08 10:00:05;;;;;;;5.50;3.20;;;8.90;74.00;;;;;;4995969;27;119286;-59
2021/03/08 10:02:32;;;;;;;5.63;2.73;;;9.30;73.10;;;;;;4996037;27;119666;-59
2021/03/08 10:05:00;;;;;;;3.97;2.87;;;9.60;68.00;;;;;;4997546;27;118156;-59
2021/03/08 10:07:26;;;;;;;4.73;3.10;;;9.70;66.40;;;;;;4997506;27;118172;-59
2021/03/08 10:10:10;;;;;;;4.97;3.07;;;10.20;66.00;;;;;;4996754;27;119209;-58
2021/03/08 10:12:36;;;;;;;5.43;3.23;;;10.40;64.70;;;;;;4996015;27;118276;-58
2021/03/08 10:15:05;;;;;;;5.50;2.20;;;10.80;63.80;;;;;;4997589;27;118510;-58
2021/03/08 10:17:32;;;;;;;2.43;2.20;;;11.10;60.20;;;;;;4998171;27;118278;-59
2021/03/08 10:20:05;;;;;;;2.63;1.80;;;11.30;58.80;;;;;;4996596;27;119396;-58
2021/03/08 10:22:33;;;;;;;3.63;1.70;;;11.10;57.30;;;;;;4996483;27;118815;-58
2021/03/08 10:25:02;;;;;;;4.20;3.30;;;11.00;58.40;;;;;;4978133;27;118168;-61
2021/03/08 10:27:31;;;;;;;3.47;2.33;;;11.50;58.50;;;;;;4997477;27;118148;-60
2021/03/08 10:29:58;;;;;;;2.93;2.47;;;11.70;57.90;;;;;;4996827;27;118593;-59
2021/03/08 10:32:25;;;;;;;3.50;2.40;;;12.00;57.50;;;;;;4995776;27;119372;-61
2021/03/08 10:34:52;;;;;;;3.07;1.40;;;12.50;56.50;;;;;;4978640;27;118874;-59
2021/03/08 10:37:20;;;;;;;2.03;1.67;;;12.90;54.60;;;;;;4997000;27;118501;-60
2021/03/08 10:39:51;;;;;;;3.77;1.70;;;13.10;52.70;;;;;;4995958;27;119510;-59
2021/03/08 10:42:23;;;;;;;2.60;1.33;;;13.40;51.80;;;;;;4996322;27;119465;-58
2021/03/08 10:44:51;;;;;;;3.80;1.50;;;13.50;50.80;;;;;;4997753;27;118355;-60
2021/03/08 10:47:17;;;;;;;4.37;2.30;;;13.60;50.90;;;;;;4996945;27;118131;-60
2021/03/08 10:49:49;;;;;;;1.67;1.30;;;13.70;50.00;;;;;;4995837;27;119957;-61
2021/03/08 10:52:15;;;;;;;3.33;1.80;;;13.90;49.50;;;;;;4995569;27;118776;-60
2021/03/08 10:54:42;;;;;;;2.00;1.37;;;13.80;48.40;;;;;;4996695;27;118594;-60
2021/03/08 10:57:08;;;;;;;1.90;1.37;;;14.10;47.90;;;;;;4996669;27;118359;-61
2021/03/08 10:59:34;;;;;;;3.60;2.00;;;14.20;47.30;;;;;;4995797;27;119235;-60
2021/03/08 11:02:02;;;;;;;2.43;1.90;;;14.40;46.90;;;;;;4995939;27;118570;-60
2021/03/08 11:04:28;;;;;;;3.80;1.70;;;14.80;46.60;;;;;;4996382;27;118521;-60
2021/03/08 11:06:55;;;;;;;5.00;2.20;;;15.40;46.40;;;;;;4996675;27;118120;-60
2021/03/08 11:09:29;;;;;;;2.60;1.73;;;15.00;44.10;;;;;;4995693;27;119643;-60
2021/03/08 11:11:55;;;;;;;1.80;1.60;;;14.70;44.10;;;;;;4995414;27;119130;-59
2021/03/08 11:14:22;;;;;;;3.40;1.60;;;15.90;45.00;;;;;;4996461;27;118715;-59
2021/03/08 11:16:50;;;;;;;2.73;1.57;;;15.10;44.00;;;;;;4996415;27;118459;-60
2021/03/08 11:19:18;;;;;;;3.43;1.70;;;15.40;41.90;;;;;;4995249;27;119305;-59
2021/03/08 11:21:46;;;;;;;3.10;1.40;;;15.20;42.50;;;;;;4995251;27;118354;-60
2021/03/08 11:24:18;;;;;;;2.60;1.67;;;14.40;42.10;;;;;;4996209;27;118148;-59
2021/03/08 11:27:07;;;;;;;2.37;1.37;;;16.20;41.80;;;;;;4996553;27;118434;-61
2021/03/08 11:29:33;;;;;;;2.20;1.67;;;15.90;39.50;;;;;;4995161;27;118789;-61
2021/03/08 11:31:59;;;;;;;2.45;1.40;;;16.80;41.60;;;;;;4995675;27;118945;-60
2021/03/08 11:34:39;;;;;;;2.33;1.35;;;16.70;41.30;;;;;;4995771;27;118305;-60
2021/03/08 11:37:10;;;;;;;1.73;1.40;;;16.30;40.10;;;;;;4996078;27;118538;-60
2021/03/08 11:39:42;;;;;;;2.92;1.20;;;16.10;35.50;;;;;;4994803;27;118681;-59
2021/03/08 11:42:08;;;;;;;2.25;1.40;;;15.80;37.90;;;;;;4994618;27;119920;-59
2021/03/08 11:44:35;;;;;;;2.25;1.50;;;16.00;37.20;;;;;;4996108;27;118311;-60
2021/03/08 11:47:01;;;;;;;1.17;1.05;;;15.80;36.20;;;;;;4996302;27;118267;-59
2021/03/08 11:49:27;;;;;;;3.55;1.17;;;15.70;35.00;;;;;;4994639;27;119715;-59
2021/03/08 11:51:54;;;;;;;4.50;2.03;;;15.40;36.10;;;;;;4994944;27;118315;-59
2021/03/08 11:54:20;;;;;;;1.90;1.00;;;15.30;36.50;;;;;;4996318;27;118240;-59
2021/03/08 11:56:47;;;;;;;2.17;1.40;;;15.20;36.10;;;;;;4996474;27;118435;-60
2021/03/08 11:59:14;;;;;;;3.03;1.30;;;14.90;35.00;;;;;;4995096;27;119077;-59
2021/03/08 12:01:40;;;;;;;2.40;1.30;;;14.80;37.60;;;;;;4994519;27;119390;-60
2021/03/08 12:04:06;;;;;;;1.50;1.20;;;14.40;36.30;;;;;;4995457;27;118427;-59
2021/03/08 12:06:33;;;;;;;1.90;1.07;;;15.10;37.70;;;;;;4995980;27;118429;-60
2021/03/08 12:08:59;;;;;;;1.55;0.98;;;15.50;36.90;;;;;;4994794;27;119216;-59
2021/03/08 12:11:25;;;;;;;1.20;1.00;;;15.50;36.60;;;;;;4994035;27;119285;-60
2021/03/08 12:13:53;;;;;;;2.58;1.30;;;15.80;36.30;;;;;;4995296;27;118302;-59
2021/03/08 12:16:19;;;;;;;2.80;1.58;;;16.10;36.20;;;;;;4976543;27;118277;-58
2021/03/08 12:18:45;;;;;;;2.13;1.50;;;16.10;34.80;;;;;;4994467;27;119280;-59
2021/03/08 12:21:12;;;;;;;1.90;1.17;;;16.10;32.30;;;;;;4995101;27;119090;-60
2021/03/08 12:23:38;;;;;;;2.55;1.38;;;15.80;34.30;;;;;;4995256;27;118317;-61
2021/03/08 12:26:04;;;;;;;2.25;1.38;;;15.60;33.10;;;;;;4996155;27;118243;-59
2021/03/08 12:28:31;;;;;;;1.83;1.33;;;15.50;33.60;;;;;;4994693;27;118835;-59
2021/03/08 12:31:01;;;;;;;1.17;0.82;;;15.40;34.50;;;;;;4994555;27;118843;-61
2021/03/08 12:33:27;;;;;;;2.38;1.20;;;15.50;34.40;;;;;;5010200;27;118240;-60
2021/03/08 12:35:53;;;;;;;2.03;1.07;;;15.50;35.00;;;;;;4995815;27;118316;-60
2021/03/08 12:38:20;;;;;;;4.15;1.10;;;15.60;34.90;;;;;;4975609;27;121804;-60
2021/03/08 12:40:46;;;;;;;1.33;0.90;;;15.80;34.60;;;;;;4994527;27;118145;-60
2021/03/08 12:43:12;;;;;;;1.70;1.20;;;15.80;34.10;;;;;;4996142;27;118527;-60
2021/03/08 12:45:42;;;;;;;1.63;1.20;;;16.20;33.90;;;;;;4996134;27;118331;-59
2021/03/08 12:48:09;;;;;;;3.35;1.90;;;16.30;33.00;;;;;;4997950;27;119608;-60